createdAt,value
2023-04-29T00:00:56.421Z,10.60
2023-04-29T00:02:55.023Z,10.63
2023-04-29T00:04:50.738Z,11.70
2023-04-29T00:06:46.084Z,10.77
2023-04-29T00:08:41.483Z,10.23
2023-04-29T00:10:36.685Z,10.20
2023-04-29T00:12:33.486Z,10.40
2023-04-29T00:14:28.555Z,14.73
2023-04-29T00:16:24.120Z,11.30
2023-04-29T00:18:21.824Z,9.90
2023-04-29T00:20:17.844Z,9.77
2023-04-29T00:22:12.917Z,29.60
2023-04-29T00:24:08.905Z,8.68
2023-04-29T00:26:04.010Z,8.70
2023-04-29T00:28:02.091Z,11.43
2023-04-29T00:29:57.288Z,7.57
2023-04-29T00:31:52.664Z,9.67
2023-04-29T00:33:50.860Z,8.40
2023-04-29T00:35:47.165Z,13.10
2023-04-29T00:37:42.365Z,8.63
2023-04-29T00:39:42.246Z,11.30
2023-04-29T00:41:37.489Z,11.93
2023-04-29T00:43:32.940Z,12.30
2023-04-29T00:45:28.157Z,12.60
2023-04-29T00:47:24.261Z,11.80
2023-04-29T00:49:24.537Z,9.27
2023-04-29T00:51:21.656Z,11.33
2023-04-29T00:53:17.564Z,11.50
2023-04-29T00:55:16.071Z,11.87
2023-04-29T00:57:11.841Z,12.63
2023-04-29T00:59:10.429Z,8.87
2023-04-29T01:01:08.036Z,9.43
2023-04-29T01:03:05.979Z,11.43
2023-04-29T01:05:05.815Z,15.37
2023-04-29T01:07:13.132Z,9.27
2023-04-29T01:09:29.756Z,13.03
2023-04-29T01:11:28.298Z,15.50
2023-04-29T01:13:33.069Z,14.43
2023-04-29T01:15:33.544Z,10.47
2023-04-29T01:17:32.216Z,12.80
2023-04-29T01:19:42.793Z,12.90
2023-04-29T01:21:49.005Z,11.67
2023-04-29T01:23:47.146Z,10.70
2023-04-29T01:25:42.989Z,12.13
2023-04-29T01:27:49.868Z,13.80
2023-04-29T01:30:38.236Z,11.27
2023-04-29T01:33:36.208Z,16.73
2023-04-29T01:36:26.106Z,16.30
2023-04-29T01:38:42.985Z,13.90
2023-04-29T01:41:36.370Z,12.23
2023-04-29T01:52:09.226Z,14.57
2023-04-29T01:54:45.101Z,14.70
2023-04-29T01:57:47.884Z,14.43
2023-04-29T02:03:49.736Z,13.53
2023-04-29T02:06:17.774Z,11.50
2023-04-29T02:08:34.504Z,13.97
2023-04-29T02:10:59.166Z,15.77
2023-04-29T02:13:44.570Z,14.30
2023-04-29T02:16:47.135Z,10.13
2023-04-29T02:19:20.946Z,11.60
2023-04-29T02:21:49.663Z,11.77
2023-04-29T02:24:24.394Z,14.27
2023-04-29T02:27:03.627Z,13.60
2023-04-29T02:43:17.063Z,12.70
2023-04-29T02:54:42.621Z,18.47
2023-04-29T04:24:16.830Z,23.70
2023-04-29T04:26:12.717Z,24.20
2023-04-29T04:28:08.233Z,24.77
2023-04-29T04:30:03.672Z,22.60
2023-04-29T04:31:58.706Z,25.03
2023-04-29T04:33:56.536Z,23.00
2023-04-29T04:35:51.757Z,27.47
2023-04-29T04:37:48.306Z,26.67
2023-04-29T04:39:46.314Z,21.70
2023-04-29T04:41:42.832Z,27.50
2023-04-29T04:43:38.386Z,26.20
2023-04-29T04:45:33.825Z,28.60
2023-04-29T04:47:28.900Z,29.50
2023-04-29T04:49:26.081Z,24.60
2023-04-29T04:51:21.266Z,27.83
2023-04-29T04:53:17.480Z,26.87
2023-04-29T04:55:15.681Z,28.93
2023-04-29T04:57:11.081Z,28.47
2023-04-29T04:59:06.508Z,32.87
2023-04-29T05:01:02.280Z,25.70
2023-04-29T05:02:57.562Z,33.47
2023-04-29T05:04:53.014Z,31.47
2023-04-29T05:06:48.506Z,30.67
2023-04-29T05:08:43.867Z,31.70
2023-04-29T05:10:42.134Z,33.53
2023-04-29T05:12:37.995Z,35.00
2023-04-29T05:14:35.770Z,40.53
2023-04-29T05:16:32.581Z,40.33
2023-04-29T05:18:27.635Z,37.93
2023-04-29T05:20:23.392Z,40.70
2023-04-29T05:22:18.374Z,40.27
2023-04-29T05:24:13.742Z,40.87
2023-04-29T05:26:11.399Z,43.77
2023-04-29T05:28:07.266Z,44.93
2023-04-29T05:30:02.422Z,43.57
2023-04-29T05:32:00.580Z,46.03
2023-04-29T05:33:55.681Z,47.70
2023-04-29T05:35:51.123Z,48.70
2023-04-29T05:37:46.119Z,48.73
2023-04-29T05:39:41.532Z,48.90
2023-04-29T05:41:39.171Z,50.97
2023-04-29T05:43:34.576Z,52.27
2023-04-29T05:45:29.603Z,50.40
2023-04-29T05:47:25.265Z,55.37
2023-04-29T05:49:20.386Z,56.63
2023-04-29T05:51:16.119Z,53.60
2023-04-29T05:53:11.338Z,54.93
2023-04-29T05:55:07.319Z,56.27
2023-04-29T05:57:05.683Z,51.67
2023-04-29T05:59:01.078Z,57.13
2023-04-29T06:00:57.639Z,59.13
2023-04-29T06:02:59.037Z,59.93
2023-04-29T06:04:54.916Z,54.33
2023-04-29T06:06:50.625Z,53.33
2023-04-29T06:08:45.726Z,52.37
2023-04-29T06:10:41.335Z,60.67
2023-04-29T06:12:38.985Z,56.83
2023-04-29T06:14:34.495Z,64.30
2023-04-29T06:16:29.516Z,54.83
2023-04-29T06:18:24.953Z,59.37
2023-04-29T06:20:20.026Z,60.87
2023-04-29T06:22:15.390Z,64.50
2023-04-29T06:24:10.704Z,66.20
2023-04-29T06:26:06.075Z,61.83
2023-04-29T06:28:04.537Z,58.80
2023-04-29T06:30:00.291Z,57.37
2023-04-29T06:31:56.376Z,68.20
2023-04-29T06:33:51.920Z,68.73
2023-04-29T06:35:46.901Z,70.43
2023-04-29T06:37:42.308Z,74.43
2023-04-29T06:39:37.339Z,79.40
2023-04-29T06:41:34.051Z,77.23
2023-04-29T06:43:31.829Z,76.30
2023-04-29T06:45:28.365Z,79.33
2023-04-29T06:47:23.532Z,64.73
2023-04-29T06:49:18.962Z,80.00
2023-04-29T06:51:14.003Z,77.63
2023-04-29T06:53:09.474Z,79.13
2023-04-29T06:55:04.734Z,72.73
2023-04-29T06:57:00.828Z,79.37
2023-04-29T06:58:58.433Z,84.43
2023-04-29T07:00:54.362Z,79.10
2023-04-29T07:02:49.560Z,80.60
2023-04-29T07:04:45.145Z,79.83
2023-04-29T07:06:40.292Z,92.87
2023-04-29T07:08:36.297Z,71.00
2023-04-29T07:10:31.397Z,72.77
2023-04-29T07:12:26.852Z,75.37
2023-04-29T07:14:27.021Z,71.33
2023-04-29T07:16:26.640Z,73.07
2023-04-29T07:18:21.998Z,72.00
2023-04-29T07:20:17.588Z,72.33
2023-04-29T07:22:12.737Z,61.67
2023-04-29T07:24:08.905Z,60.23
2023-04-29T07:26:12.379Z,63.53
2023-04-29T07:28:08.592Z,65.53
2023-04-29T07:30:06.903Z,55.67
2023-04-29T07:32:02.311Z,48.27
2023-04-29T07:33:58.616Z,47.87
2023-04-29T07:35:54.069Z,51.83
2023-04-29T07:37:49.305Z,48.93
2023-04-29T07:39:45.176Z,47.23
2023-04-29T07:41:40.216Z,46.60
2023-04-29T07:43:35.603Z,51.43
2023-04-29T07:45:33.548Z,50.73
2023-04-29T07:47:28.986Z,52.90
2023-04-29T07:49:24.057Z,58.07
2023-04-29T07:51:19.855Z,59.23
2023-04-29T07:53:16.223Z,63.53
2023-04-29T07:55:13.435Z,65.67
2023-04-29T07:57:08.916Z,65.00
2023-04-29T07:59:04.897Z,63.43
2023-04-29T08:01:09.028Z,57.53
2023-04-29T08:03:05.549Z,53.83
2023-04-29T08:05:03.664Z,56.73
2023-04-29T08:07:00.107Z,47.30
2023-04-29T08:08:56.737Z,54.73
2023-04-29T08:10:53.559Z,46.27
2023-04-29T08:12:49.361Z,49.67
2023-04-29T08:14:45.524Z,45.33
2023-04-29T08:16:44.085Z,38.87
2023-04-29T08:18:40.040Z,37.30
2023-04-29T08:20:35.069Z,33.90
2023-04-29T08:22:30.776Z,27.60
2023-04-29T08:24:25.919Z,26.60
2023-04-29T08:26:22.586Z,29.80
2023-04-29T08:28:19.722Z,26.50
2023-04-29T08:30:16.408Z,31.87
2023-04-29T08:32:14.262Z,30.93
2023-04-29T08:34:09.920Z,26.37
2023-04-29T08:36:06.083Z,26.10
2023-04-29T08:38:01.851Z,25.00
2023-04-29T08:39:57.336Z,20.30
2023-04-29T08:41:54.963Z,18.83
2023-04-29T08:43:50.830Z,23.37
2023-04-29T08:45:46.950Z,17.43
2023-04-29T08:47:45.970Z,18.23
2023-04-29T08:49:41.631Z,17.73
2023-04-29T08:51:36.713Z,17.83
2023-04-29T08:53:32.881Z,18.30
2023-04-29T08:55:27.975Z,18.20
2023-04-29T08:57:24.846Z,19.63
2023-04-29T08:59:20.748Z,19.20
2023-04-29T09:01:18.546Z,20.33
2023-04-29T09:03:25.604Z,17.20
2023-04-29T09:05:21.993Z,17.37
2023-04-29T09:07:17.704Z,20.30
2023-04-29T09:09:14.881Z,18.47
2023-04-29T09:11:15.639Z,23.17
2023-04-29T09:13:15.932Z,20.67
2023-04-29T09:15:14.908Z,18.63
2023-04-29T09:17:13.568Z,23.47
2023-04-29T09:19:16.456Z,18.20
2023-04-29T09:21:24.682Z,18.07
2023-04-29T09:23:23.352Z,19.97
2023-04-29T09:25:22.944Z,20.90
2023-04-29T09:27:33.630Z,19.47
2023-04-29T09:29:34.762Z,20.67
2023-04-29T09:31:32.879Z,20.27
2023-04-29T09:33:32.232Z,21.17
2023-04-29T09:35:37.229Z,23.33
2023-04-29T09:37:38.019Z,23.17
2023-04-29T09:39:43.696Z,23.50
2023-04-29T09:41:47.564Z,24.40
2023-04-29T09:43:45.423Z,25.00
2023-04-29T09:45:49.220Z,26.50
2023-04-29T09:47:50.293Z,23.07
2023-04-29T09:58:16.758Z,26.80
2023-04-29T10:04:00.415Z,33.77
2023-04-29T10:05:59.961Z,35.37
2023-04-29T10:07:55.353Z,36.30
2023-04-29T10:09:51.270Z,34.50
2023-04-29T10:11:47.259Z,37.17
2023-04-29T10:13:46.586Z,35.23
2023-04-29T10:15:52.767Z,36.40
2023-04-29T10:17:55.563Z,36.57
2023-04-29T10:19:57.391Z,39.50
2023-04-29T10:21:57.268Z,36.00
2023-04-29T10:23:53.070Z,44.17
2023-04-29T10:25:50.778Z,49.23
2023-04-29T10:27:46.498Z,51.77
2023-04-29T10:29:44.343Z,50.83
2023-04-29T10:31:40.925Z,53.60
2023-04-29T10:33:38.599Z,55.97
2023-04-29T10:35:33.954Z,57.27
2023-04-29T10:37:36.474Z,59.10
2023-04-29T10:39:39.618Z,61.50
2023-04-29T10:41:47.667Z,63.07
2023-04-29T10:43:44.296Z,63.33
2023-04-29T10:45:53.605Z,63.93
2023-04-29T10:48:14.530Z,62.67
2023-04-29T10:50:13.218Z,60.30
2023-04-29T10:52:08.657Z,63.90
2023-04-29T10:54:12.156Z,68.80
2023-04-29T10:56:11.602Z,70.10
2023-04-29T10:58:58.450Z,65.63
2023-04-29T11:00:55.335Z,57.47
2023-04-29T11:02:55.171Z,59.53
2023-04-29T11:05:11.791Z,59.50
2023-04-29T11:07:10.187Z,55.57
2023-04-29T11:12:44.400Z,53.50
2023-04-29T11:15:24.846Z,47.47
2023-04-29T11:23:48.118Z,51.03
2023-04-29T11:36:33.337Z,42.67
2023-04-29T12:09:51.573Z,26.90
2023-04-29T12:12:19.889Z,26.20
2023-04-29T12:14:48.631Z,25.57
2023-04-29T12:17:02.090Z,26.40
2023-04-29T12:19:14.753Z,28.30
2023-04-29T12:21:16.196Z,22.60
2023-04-29T12:23:36.400Z,23.50
2023-04-29T12:25:36.216Z,22.17
2023-04-29T12:27:32.687Z,21.10
2023-04-29T12:29:31.617Z,21.23
2023-04-29T12:31:49.835Z,26.60
2023-04-29T12:33:47.659Z,26.97
2023-04-29T12:35:43.012Z,20.13
2023-04-29T12:37:38.134Z,26.93
2023-04-29T12:39:34.891Z,21.47
2023-04-29T12:41:44.402Z,24.83
2023-04-29T12:43:40.450Z,24.10
2023-04-29T12:45:37.022Z,22.27
2023-04-29T12:47:37.494Z,22.30
2023-04-29T12:49:33.826Z,20.77
2023-04-29T12:51:50.467Z,20.80
2023-04-29T12:53:56.400Z,23.70
2023-04-29T12:56:00.138Z,23.53
2023-04-29T12:58:00.802Z,22.40
2023-04-29T12:59:57.558Z,21.03
2023-04-29T13:02:26.080Z,18.30
2023-04-29T13:04:22.563Z,25.63
2023-04-29T13:06:20.172Z,25.97
2023-04-29T13:08:15.967Z,21.73
2023-04-29T13:10:12.908Z,23.13
2023-04-29T13:12:09.761Z,22.40
2023-04-29T13:14:08.365Z,19.27
2023-04-29T13:16:04.354Z,19.60
2023-04-29T13:18:11.691Z,18.13
2023-04-29T13:20:11.915Z,17.20
2023-04-29T13:22:07.751Z,15.03
2023-04-29T13:24:03.670Z,18.63
2023-04-29T13:25:58.973Z,19.03
2023-04-29T13:28:02.039Z,14.40
2023-04-29T13:30:06.713Z,12.67
2023-04-29T13:32:44.942Z,16.52
2023-04-29T13:35:02.038Z,10.93
2023-04-29T13:36:58.475Z,15.20
2023-04-29T13:41:42.245Z,9.82
2023-04-29T13:44:34.161Z,8.80
2023-04-29T13:51:09.622Z,9.63
2023-04-29T14:00:31.842Z,7.60
2023-04-29T14:02:28.252Z,7.45
2023-04-29T14:04:23.862Z,6.60
2023-04-29T14:06:25.059Z,21.90
2023-04-29T14:15:26.638Z,8.52
2023-04-29T14:46:36.958Z,8.85
2023-04-29T14:48:42.376Z,12.75
2023-04-29T15:01:36.336Z,11.30
2023-04-29T15:04:41.978Z,13.32
2023-04-29T15:08:02.795Z,11.15
2023-04-29T15:16:07.800Z,12.93
2023-04-29T15:22:14.952Z,10.20
2023-04-29T15:24:38.385Z,24.75
2023-04-29T15:30:17.449Z,13.00
2023-04-29T15:32:17.787Z,10.70
2023-04-29T15:34:14.623Z,15.20
2023-04-29T15:36:12.768Z,12.20
2023-04-29T15:38:10.218Z,9.75
2023-04-29T15:40:11.352Z,10.40
2023-04-29T15:42:07.508Z,13.73
2023-04-29T15:44:06.095Z,13.70
2023-04-29T15:46:03.273Z,12.40
2023-04-29T15:48:01.672Z,12.02
2023-04-29T15:50:01.672Z,15.73
2023-04-29T15:52:00.194Z,13.38
2023-04-29T15:53:58.384Z,12.25
2023-04-29T15:56:03.522Z,10.18
2023-04-29T15:58:02.788Z,10.50
2023-04-29T16:00:02.425Z,7.90
2023-04-29T16:01:59.284Z,17.35
2023-04-29T16:03:58.239Z,14.57
2023-04-29T16:05:56.400Z,9.50
2023-04-29T16:07:56.020Z,9.95
2023-04-29T16:09:56.111Z,10.65
2023-04-29T16:11:59.588Z,14.85
2023-04-29T16:13:59.101Z,10.95
2023-04-29T16:15:57.724Z,12.80
2023-04-29T16:17:56.947Z,8.68
2023-04-29T16:19:54.844Z,11.55
2023-04-29T16:21:53.340Z,10.55
2023-04-29T16:23:52.056Z,12.50
2023-04-29T16:25:51.869Z,11.38
2023-04-29T16:27:54.627Z,13.27
2023-04-29T16:29:52.308Z,10.73
2023-04-29T16:31:53.948Z,12.13
2023-04-29T16:33:50.537Z,12.60
2023-04-29T16:35:47.986Z,12.02
2023-04-29T16:37:43.030Z,9.68
2023-04-29T16:39:38.389Z,15.20
2023-04-29T16:41:33.500Z,10.43
2023-04-29T16:43:31.417Z,10.55
2023-04-29T16:45:27.037Z,11.93
2023-04-29T16:47:23.704Z,12.05
2023-04-29T16:49:27.275Z,10.05
2023-04-29T16:51:23.069Z,9.90
2023-04-29T16:53:18.114Z,10.02
2023-04-29T16:55:15.183Z,7.82
2023-04-29T16:57:10.817Z,10.88
2023-04-29T16:59:08.910Z,7.93
2023-04-29T17:01:05.036Z,15.98
2023-04-29T17:03:01.042Z,10.90
2023-04-29T17:04:56.315Z,11.35
2023-04-29T17:06:53.702Z,14.88
2023-04-29T17:08:51.311Z,11.38
2023-04-29T17:34:02.731Z,14.10
2023-04-29T17:36:07.329Z,7.15
2023-04-29T17:38:56.001Z,6.25
2023-04-29T17:41:48.270Z,15.13
2023-04-29T17:50:21.873Z,6.18
2023-04-29T17:52:49.192Z,8.77
2023-04-29T17:54:51.842Z,12.75
2023-04-29T17:56:48.513Z,10.77
2023-04-29T17:58:43.660Z,11.80
2023-04-29T18:09:37.717Z,8.48
2023-04-29T18:12:30.118Z,7.55
2023-04-29T18:14:49.076Z,8.98
2023-04-29T18:22:36.898Z,15.55
2023-04-29T18:25:45.727Z,10.45
2023-04-29T18:28:47.102Z,9.40
2023-04-29T18:31:16.499Z,6.43
2023-04-29T18:37:40.499Z,8.57
2023-04-29T18:39:35.917Z,10.52
2023-04-29T18:41:31.837Z,4.97
2023-04-29T18:43:29.857Z,8.63
2023-04-29T18:45:25.838Z,6.57
2023-04-29T18:47:21.076Z,6.35
2023-04-29T18:49:18.122Z,8.07
2023-04-29T18:51:14.418Z,4.82
2023-04-29T18:53:10.147Z,8.70
2023-04-29T18:55:05.290Z,7.82
2023-04-29T18:57:02.699Z,11.85
2023-04-29T18:59:00.341Z,10.32
2023-04-29T19:00:57.811Z,7.78
2023-04-29T19:02:53.046Z,9.02
2023-04-29T19:04:48.905Z,58.70
2023-04-29T19:06:44.549Z,9.98
2023-04-29T19:08:39.930Z,8.00
2023-04-29T19:10:35.050Z,8.70
2023-04-29T19:12:30.661Z,6.78
2023-04-29T19:14:28.615Z,5.80
2023-04-29T19:16:24.412Z,10.20
2023-04-29T19:18:21.470Z,8.68
2023-04-29T19:20:16.927Z,4.88
2023-04-29T19:22:12.388Z,6.25
2023-04-29T19:24:08.254Z,10.05
2023-04-29T19:26:03.404Z,9.98
2023-04-29T19:27:59.298Z,8.65
2023-04-29T19:29:56.939Z,9.55
2023-04-29T19:31:52.690Z,6.10
2023-04-29T19:33:48.227Z,7.45
2023-04-29T19:35:43.808Z,8.95
2023-04-29T19:37:39.036Z,6.20
2023-04-29T19:39:34.465Z,8.23
2023-04-29T19:41:29.995Z,6.05
2023-04-29T19:43:25.606Z,12.40
2023-04-29T19:45:23.984Z,6.63
2023-04-29T19:47:19.347Z,9.90
2023-04-29T19:49:14.921Z,10.43
2023-04-29T19:51:10.626Z,7.55
2023-04-29T19:53:05.861Z,9.68
2023-04-29T19:55:01.201Z,8.57
2023-04-29T19:56:56.376Z,9.43
2023-04-29T19:58:52.060Z,11.77
2023-04-29T20:00:49.758Z,9.65
2023-04-29T20:02:45.463Z,10.23
2023-04-29T20:04:42.634Z,8.30
2023-04-29T20:06:38.061Z,8.27
2023-04-29T20:08:33.109Z,8.57
2023-04-29T20:10:30.034Z,8.30
2023-04-29T20:12:25.278Z,11.02
2023-04-29T20:14:21.242Z,10.37
2023-04-29T20:16:19.047Z,7.47
2023-04-29T20:18:14.396Z,12.90
2023-04-29T20:20:11.247Z,7.07
2023-04-29T20:22:06.718Z,10.67
2023-04-29T20:24:01.951Z,11.43
2023-04-29T20:25:57.389Z,10.13
2023-04-29T20:27:53.842Z,11.27
2023-04-29T20:29:49.207Z,13.25
2023-04-29T20:31:46.959Z,10.85
2023-04-29T20:33:42.859Z,9.77
2023-04-29T20:35:38.238Z,8.50
2023-04-29T20:37:34.551Z,9.65
2023-04-29T20:39:30.644Z,9.50
2023-04-29T20:41:27.016Z,8.05
2023-04-29T20:43:22.363Z,10.18
2023-04-29T20:45:18.591Z,10.82
2023-04-29T20:47:17.238Z,8.60
2023-04-29T20:49:13.393Z,8.77
2023-04-29T20:51:10.495Z,9.50
2023-04-29T20:53:07.200Z,12.23
2023-04-29T20:55:02.595Z,10.70
2023-04-29T20:56:58.408Z,11.20
2023-04-29T20:58:53.795Z,10.63
2023-04-29T21:00:49.406Z,11.83
2023-04-29T21:02:47.345Z,11.57
2023-04-29T21:04:43.203Z,11.13
2023-04-29T21:06:38.632Z,12.27
2023-04-29T21:08:34.436Z,10.50
2023-04-29T21:10:29.777Z,11.37
2023-04-29T21:12:25.646Z,10.47
2023-04-29T21:14:21.633Z,12.73
2023-04-29T21:16:17.350Z,13.57
2023-04-29T21:18:15.672Z,14.60
2023-04-29T21:20:12.216Z,17.03
2023-04-29T21:22:07.693Z,11.50
2023-04-29T21:24:03.296Z,12.70
2023-04-29T21:25:58.601Z,14.43
2023-04-29T21:27:53.971Z,11.03
2023-04-29T21:29:48.893Z,10.87
2023-04-29T21:31:44.324Z,9.67
2023-04-29T21:33:42.038Z,10.67
2023-04-29T21:35:39.146Z,10.13
2023-04-29T21:37:34.407Z,13.60
2023-04-29T21:39:31.633Z,11.20
2023-04-29T21:41:28.691Z,10.40
2023-04-29T21:43:24.174Z,13.57
2023-04-29T21:45:20.219Z,16.53
2023-04-29T21:47:16.468Z,19.80
2023-04-29T21:49:14.184Z,18.43
2023-04-29T21:51:09.742Z,14.20
2023-04-29T21:53:04.995Z,13.27
2023-04-29T21:55:00.339Z,13.83
2023-04-29T21:56:55.439Z,17.00
2023-04-29T21:58:50.737Z,14.00
2023-04-29T22:00:58.252Z,11.87
2023-04-29T22:02:53.889Z,11.57
2023-04-29T22:04:52.208Z,9.63
2023-04-29T22:06:47.742Z,11.33
2023-04-29T22:08:42.858Z,15.97
2023-04-29T22:10:40.212Z,10.97
2023-04-29T22:12:35.509Z,9.90
2023-04-29T22:14:30.990Z,12.03
2023-04-29T22:16:26.147Z,11.67
2023-04-29T22:18:21.586Z,10.20
2023-04-29T22:20:19.299Z,9.90
2023-04-29T22:22:14.686Z,8.37
2023-04-29T22:24:09.775Z,8.47
2023-04-29T22:26:05.566Z,8.77
2023-04-29T22:28:00.676Z,8.20
2023-04-29T22:29:58.642Z,7.27
2023-04-29T22:31:53.724Z,11.27
2023-04-29T22:33:49.114Z,9.13
2023-04-29T22:35:46.758Z,7.93
2023-04-29T22:37:42.152Z,8.90
2023-04-29T22:39:37.169Z,9.43
2023-04-29T22:41:32.564Z,7.03
2023-04-29T22:43:27.590Z,10.97
2023-04-29T22:45:22.988Z,9.67
2023-04-29T22:47:17.981Z,8.33
2023-04-29T22:49:13.602Z,6.67
2023-04-29T22:51:11.336Z,5.47
2023-04-29T22:53:06.735Z,7.23
2023-04-29T22:55:02.266Z,7.37
2023-04-29T22:56:58.349Z,12.23
2023-04-29T22:58:53.333Z,9.13
2023-04-29T23:00:49.030Z,7.13
2023-04-29T23:02:44.135Z,7.20
2023-04-29T23:04:39.550Z,9.00
2023-04-29T23:06:39.581Z,11.00
2023-04-29T23:08:35.084Z,8.57
2023-04-29T23:10:30.255Z,9.67
2023-04-29T23:12:25.722Z,13.57
2023-04-29T23:14:23.269Z,7.20
2023-04-29T23:16:18.821Z,15.60
2023-04-29T23:18:14.266Z,8.27
